Time;durP1;ratioP1;P1;durP2;ratioP2;P2;SDS_P1;SDS_P2;PMS_P1;PMS_P2;Temp;Humidity;BMP_temperature;BMP_pressure;BME280_temperature;BME280_humidity;BME280_pressure;Samples;Min_cycle;Max_cycle;Signal;HPM_P1;HPM_P2
2021/10/16 00:01:58;;;;;;;23.98;15.68;;;11.90;99.90;;;;;;5093809;28;20176;-71
2021/10/16 00:04:26;;;;;;;24.25;15.40;;;11.90;99.90;;;;;;5093644;28;20244;-72
2021/10/16 00:06:53;;;;;;;22.23;16.17;;;11.80;99.90;;;;;;5093502;28;20641;-71
2021/10/16 00:09:26;;;;;;;28.48;16.58;;;11.80;99.90;;;;;;5093333;28;20204;-72
2021/10/16 00:11:56;;;;;;;20.30;14.95;;;11.80;99.90;;;;;;5093838;28;20179;-71
2021/10/16 00:14:25;;;;;;;24.80;15.55;;;11.80;99.90;;;;;;5093252;28;20224;-72
2021/10/16 00:16:51;;;;;;;24.20;17.13;;;11.80;99.90;;;;;;5093712;28;20172;-71
2021/10/16 00:19:19;;;;;;;25.58;16.58;;;11.80;99.90;;;;;;5093436;28;20176;-72
2021/10/16 00:21:45;;;;;;;31.40;17.60;;;11.70;99.90;;;;;;5093511;28;20530;-71
2021/10/16 00:24:14;;;;;;;25.85;16.20;;;11.70;99.90;;;;;;5093584;28;20207;-73
2021/10/16 00:26:40;;;;;;;26.42;16.90;;;11.70;99.90;;;;;;5093279;28;20176;-71
2021/10/16 00:29:06;;;;;;;22.05;16.58;;;11.70;99.90;;;;;;5093089;28;20230;-71
2021/10/16 00:31:33;;;;;;;22.40;16.27;;;11.70;99.90;;;;;;5093146;28;20548;-71
2021/10/16 00:34:07;;;;;;;26.42;17.58;;;11.70;99.90;;;;;;5093154;28;20590;-72
2021/10/16 00:36:33;;;;;;;28.50;17.90;;;11.70;99.90;;;;;;5093390;28;20168;-71
2021/10/16 00:39:04;;;;;;;27.45;17.48;;;11.70;99.90;;;;;;5093315;28;20219;-72
2021/10/16 00:41:33;;;;;;;33.25;20.70;;;11.60;99.90;;;;;;5093662;28;20180;-72
2021/10/16 00:44:11;;;;;;;29.10;17.77;;;11.60;99.90;;;;;;5092652;28;20188;-73
2021/10/16 00:46:37;;;;;;;26.02;18.25;;;11.60;99.90;;;;;;5093378;28;20176;-71
2021/10/16 00:49:03;;;;;;;28.58;19.20;;;11.60;99.90;;;;;;5092926;28;20245;-71
2021/10/16 00:51:32;;;;;;;27.00;18.77;;;11.60;99.90;;;;;;5094188;28;20160;-72
2021/10/16 00:54:00;;;;;;;28.20;18.40;;;11.60;99.90;;;;;;5092858;28;20658;-72
2021/10/16 00:56:31;;;;;;;28.15;18.40;;;11.50;99.90;;;;;;5093057;28;20177;-72
2021/10/16 00:58:57;;;;;;;26.38;18.77;;;11.50;99.90;;;;;;5093184;28;20196;-72
2021/10/16 01:01:24;;;;;;;29.98;19.45;;;11.50;99.90;;;;;;5093167;28;20253;-71
2021/10/16 01:03:54;;;;;;;27.77;18.75;;;11.50;99.90;;;;;;5092486;28;20232;-71
2021/10/16 01:06:21;;;;;;;26.63;18.15;;;11.50;99.90;;;;;;5092775;28;20231;-71
2021/10/16 01:08:47;;;;;;;30.17;19.63;;;11.50;99.90;;;;;;5092591;28;20228;-72
2021/10/16 01:11:15;;;;;;;27.83;19.67;;;11.50;99.90;;;;;;5092591;28;20203;-72
2021/10/16 01:13:42;;;;;;;28.70;18.33;;;11.50;99.90;;;;;;5092339;28;20237;-72
2021/10/16 01:16:11;;;;;;;28.10;19.30;;;11.50;99.90;;;;;;5093784;28;20226;-72
2021/10/16 01:18:40;;;;;;;27.08;18.55;;;11.40;99.90;;;;;;5092484;28;20191;-72
2021/10/16 01:21:08;;;;;;;30.17;19.90;;;11.40;99.90;;;;;;5092467;28;20687;-72
2021/10/16 01:23:36;;;;;;;31.90;20.50;;;11.40;99.90;;;;;;5092977;28;20533;-71
2021/10/16 01:26:04;;;;;;;38.17;21.27;;;11.40;99.90;;;;;;5092624;28;20199;-72
2021/10/16 01:28:33;;;;;;;30.35;20.52;;;11.40;99.90;;;;;;5092759;28;20188;-72
2021/10/16 01:31:02;;;;;;;29.70;21.50;;;11.40;99.90;;;;;;5092131;28;20193;-72
2021/10/16 01:33:37;;;;;;;32.38;21.08;;;11.40;99.90;;;;;;5092507;28;20270;-72
2021/10/16 01:36:06;;;;;;;27.83;19.75;;;11.40;99.90;;;;;;5092682;28;20192;-72
2021/10/16 01:38:33;;;;;;;30.98;20.85;;;11.40;99.90;;;;;;5092435;28;20177;-71
2021/10/16 01:41:00;;;;;;;31.60;19.65;;;11.40;99.90;;;;;;5092287;28;20238;-72
2021/10/16 01:43:28;;;;;;;30.00;20.27;;;11.40;99.90;;;;;;5092377;28;20207;-72
2021/10/16 01:45:55;;;;;;;33.08;20.63;;;11.30;99.90;;;;;;5092170;28;20592;-72
2021/10/16 01:48:23;;;;;;;30.85;20.30;;;11.30;99.90;;;;;;5092604;28;20728;-72
2021/10/16 01:50:54;;;;;;;27.30;19.67;;;11.30;99.90;;;;;;5093193;28;20192;-72
2021/10/16 01:53:22;;;;;;;28.20;19.48;;;11.30;99.90;;;;;;5092495;28;20216;-71
2021/10/16 01:55:49;;;;;;;26.10;19.58;;;11.30;99.90;;;;;;5093848;28;20287;-72
2021/10/16 01:58:16;;;;;;;31.60;19.85;;;11.30;99.90;;;;;;5096215;28;20184;-71
2021/10/16 02:00:50;;;;;;;29.33;20.13;;;11.30;99.90;;;;;;5096154;28;20196;-72
2021/10/16 02:03:17;;;;;;;26.83;19.95;;;11.30;99.90;;;;;;5096350;28;20266;-72
2021/10/16 02:05:46;;;;;;;29.52;19.77;;;11.30;99.90;;;;;;5095882;28;20189;-71
2021/10/16 02:08:14;;;;;;;29.40;20.30;;;11.30;99.90;;;;;;5096074;28;20195;-71
2021/10/16 02:10:41;;;;;;;37.08;22.35;;;11.30;99.90;;;;;;5095676;28;20196;-72
2021/10/16 02:13:07;;;;;;;32.58;20.55;;;11.30;99.90;;;;;;5095690;28;20713;-70
2021/10/16 02:15:33;;;;;;;31.77;19.80;;;11.30;99.90;;;;;;5095697;28;20262;-72
2021/10/16 02:17:59;;;;;;;29.90;20.80;;;11.30;99.90;;;;;;5095598;28;20472;-71
2021/10/16 02:20:25;;;;;;;33.55;20.90;;;11.30;99.90;;;;;;5096041;28;20200;-71
2021/10/16 02:22:51;;;;;;;30.73;20.80;;;11.30;99.90;;;;;;5095712;28;20183;-72
2021/10/16 02:25:22;;;;;;;33.03;20.40;;;11.30;99.90;;;;;;5095807;28;20196;-72
2021/10/16 02:27:49;;;;;;;33.25;20.17;;;11.20;99.90;;;;;;5095602;28;20933;-72
2021/10/16 02:30:26;;;;;;;33.50;21.52;;;11.30;99.90;;;;;;5096798;28;20192;-72
2021/10/16 02:32:56;;;;;;;31.77;20.52;;;11.20;99.90;;;;;;5095281;28;20582;-72
2021/10/16 02:35:24;;;;;;;31.20;20.95;;;11.20;99.90;;;;;;5096786;28;20189;-70
2021/10/16 02:37:52;;;;;;;32.95;20.15;;;11.20;99.90;;;;;;5095377;28;20211;-72
2021/10/16 02:40:19;;;;;;;31.70;19.95;;;11.20;99.90;;;;;;5095553;28;20223;-72
2021/10/16 02:42:45;;;;;;;29.02;18.10;;;11.20;99.90;;;;;;5095138;28;20587;-71
2021/10/16 02:45:16;;;;;;;28.67;19.43;;;11.20;99.90;;;;;;5095481;28;20728;-72
2021/10/16 02:47:42;;;;;;;31.77;19.85;;;11.20;99.90;;;;;;5095464;28;20436;-72
2021/10/16 02:50:08;;;;;;;28.40;19.83;;;11.20;99.90;;;;;;5094972;28;20196;-72
2021/10/16 02:52:42;;;;;;;30.35;18.85;;;11.20;99.90;;;;;;5095064;28;20263;-72
2021/10/16 02:55:09;;;;;;;30.45;20.17;;;11.20;99.90;;;;;;5094973;28;20291;-72
2021/10/16 02:57:39;;;;;;;27.75;21.00;;;11.20;99.90;;;;;;5095118;28;20203;-72
2021/10/16 03:00:06;;;;;;;30.23;19.98;;;11.20;99.90;;;;;;5096238;28;20192;-72
2021/10/16 03:02:32;;;;;;;31.45;19.15;;;11.20;99.90;;;;;;5095031;28;20176;-72
2021/10/16 03:04:58;;;;;;;30.30;19.20;;;11.20;99.90;;;;;;5094586;28;20207;-72
2021/10/16 03:07:25;;;;;;;27.00;18.50;;;11.20;99.90;;;;;;5095898;28;20409;-72
2021/10/16 03:09:51;;;;;;;26.77;17.70;;;11.20;99.90;;;;;;5095188;28;20411;-71
2021/10/16 03:12:18;;;;;;;24.88;18.13;;;11.20;99.90;;;;;;5094338;28;20172;-71
2021/10/16 03:14:48;;;;;;;31.73;20.17;;;11.20;99.90;;;;;;5094592;28;20250;-71
2021/10/16 03:17:16;;;;;;;27.48;19.00;;;11.10;99.90;;;;;;5095049;28;20420;-73
2021/10/16 03:19:44;;;;;;;27.70;17.60;;;11.10;99.90;;;;;;5094526;28;20249;-72
2021/10/16 03:22:15;;;;;;;26.92;18.85;;;11.10;99.90;;;;;;5094178;28;20214;-72
2021/10/16 03:24:41;;;;;;;30.92;18.02;;;11.10;99.90;;;;;;5094800;28;20241;-72
2021/10/16 03:27:07;;;;;;;31.37;19.10;;;11.10;99.90;;;;;;5094840;28;20625;-72
2021/10/16 03:29:34;;;;;;;26.73;18.37;;;11.00;99.90;;;;;;5094468;28;20440;-72
2021/10/16 03:32:04;;;;;;;29.90;18.55;;;11.00;99.90;;;;;;5094295;28;20176;-71
2021/10/16 03:34:33;;;;;;;27.80;19.05;;;11.00;99.90;;;;;;5094228;28;20220;-72
2021/10/16 03:37:11;;;;;;;28.85;19.55;;;11.00;99.90;;;;;;5094554;28;20253;-72
2021/10/16 03:39:39;;;;;;;27.85;18.63;;;11.00;99.90;;;;;;5094263;28;20196;-73
2021/10/16 03:42:05;;;;;;;25.60;16.92;;;11.00;99.90;;;;;;5094205;28;20644;-71
2021/10/16 03:44:32;;;;;;;26.40;18.13;;;11.00;99.90;;;;;;5095659;28;20538;-72
2021/10/16 03:46:58;;;;;;;25.98;18.63;;;11.00;99.90;;;;;;5094086;28;20391;-71
2021/10/16 03:49:30;;;;;;;26.10;17.70;;;11.00;99.90;;;;;;5094079;28;20294;-72
2021/10/16 03:51:58;;;;;;;23.95;17.38;;;11.00;99.90;;;;;;5094425;28;20173;-72
2021/10/16 03:54:25;;;;;;;25.83;17.75;;;11.00;99.90;;;;;;5093693;28;20756;-73
2021/10/16 03:56:52;;;;;;;25.58;17.35;;;10.90;99.90;;;;;;5093592;28;20172;-72
2021/10/16 03:59:22;;;;;;;29.48;17.75;;;10.90;99.90;;;;;;5093985;28;20180;-72
2021/10/16 04:01:48;;;;;;;29.48;17.58;;;10.90;99.90;;;;;;5093840;28;20263;-71
2021/10/16 04:04:15;;;;;;;27.70;17.97;;;10.90;99.90;;;;;;5094231;28;20223;-72
2021/10/16 04:06:41;;;;;;;27.50;17.85;;;10.90;99.90;;;;;;5093593;28;20421;-71
2021/10/16 04:09:07;;;;;;;22.33;16.77;;;10.90;99.90;;;;;;5093668;28;20229;-72
2021/10/16 04:11:39;;;;;;;25.08;17.00;;;10.90;99.90;;;;;;5093551;28;20191;-72
2021/10/16 04:14:09;;;;;;;21.75;15.95;;;10.90;99.90;;;;;;5093216;28;20262;-71
2021/10/16 04:16:36;;;;;;;27.63;17.05;;;10.90;99.90;;;;;;5093993;28;20184;-71
2021/10/16 04:19:02;;;;;;;30.30;18.10;;;10.90;99.90;;;;;;5092464;28;20192;-72
2021/10/16 04:21:28;;;;;;;24.77;16.53;;;10.90;99.90;;;;;;5093406;28;20225;-72
2021/10/16 04:24:00;;;;;;;30.07;17.80;;;10.90;99.90;;;;;;5093587;28;20890;-72
2021/10/16 04:26:27;;;;;;;28.58;18.05;;;10.90;99.90;;;;;;5093353;28;20176;-71
2021/10/16 04:28:56;;;;;;;25.25;16.10;;;10.90;99.90;;;;;;5093496;28;20187;-72
2021/10/16 04:31:23;;;;;;;26.25;17.45;;;10.90;99.90;;;;;;5093312;28;20188;-71
2021/10/16 04:33:50;;;;;;;24.85;16.08;;;10.90;99.90;;;;;;5093398;28;20583;-72
2021/10/16 04:36:19;;;;;;;27.63;17.33;;;10.90;99.90;;;;;;5093309;28;20196;-72
2021/10/16 04:38:49;;;;;;;24.88;17.42;;;10.90;99.90;;;;;;5093332;28;20219;-72
2021/10/16 04:41:16;;;;;;;23.55;15.25;;;10.90;99.90;;;;;;5093207;28;20188;-72
2021/10/16 04:43:44;;;;;;;25.92;16.98;;;10.90;99.90;;;;;;5093375;28;20180;-71
2021/10/16 04:46:12;;;;;;;24.38;17.10;;;10.90;99.90;;;;;;5093095;28;20197;-72
2021/10/16 04:48:48;;;;;;;23.15;16.42;;;10.90;99.90;;;;;;5093299;28;20212;-71
2021/10/16 04:51:15;;;;;;;26.75;17.30;;;10.90;99.90;;;;;;5093415;28;20253;-72
2021/10/16 04:53:43;;;;;;;20.65;15.40;;;10.90;99.90;;;;;;5092975;28;20253;-72
2021/10/16 04:56:12;;;;;;;29.05;17.67;;;10.90;99.90;;;;;;5092810;28;20235;-73
2021/10/16 04:58:39;;;;;;;20.25;14.80;;;10.90;99.90;;;;;;5092855;28;20185;-72
2021/10/16 05:01:06;;;;;;;26.17;15.43;;;10.80;99.90;;;;;;5092683;28;20200;-71
2021/10/16 05:03:32;;;;;;;23.27;17.35;;;10.80;99.90;;;;;;5092855;28;20181;-71
2021/10/16 05:06:00;;;;;;;22.23;15.25;;;10.80;99.90;;;;;;5092614;28;20680;-72
2021/10/16 05:08:30;;;;;;;21.48;14.93;;;10.80;99.90;;;;;;5092721;28;20264;-72
2021/10/16 05:10:56;;;;;;;23.98;15.40;;;10.80;99.90;;;;;;5092596;28;20188;-72
2021/10/16 05:13:24;;;;;;;19.52;14.18;;;10.80;99.90;;;;;;5092145;28;20240;-71
2021/10/16 05:15:51;;;;;;;24.02;16.45;;;10.70;99.90;;;;;;5092574;28;20699;-71
2021/10/16 05:18:18;;;;;;;24.58;16.25;;;10.70;99.90;;;;;;5092541;28;20679;-71
2021/10/16 05:20:46;;;;;;;24.40;15.57;;;10.70;99.90;;;;;;5092547;28;20195;-71
2021/10/16 05:23:16;;;;;;;22.75;15.90;;;10.70;99.90;;;;;;5092350;28;20191;-72
2021/10/16 05:25:43;;;;;;;24.63;16.65;;;10.70;99.90;;;;;;5092505;28;20225;-72
2021/10/16 05:28:11;;;;;;;23.10;16.10;;;10.70;99.90;;;;;;5092318;28;20547;-72
2021/10/16 05:30:38;;;;;;;25.98;16.08;;;10.70;99.90;;;;;;5095457;28;20195;-71
2021/10/16 05:33:11;;;;;;;26.77;17.40;;;10.70;99.90;;;;;;5096573;28;20218;-72
2021/10/16 05:35:43;;;;;;;28.77;18.17;;;10.70;99.90;;;;;;5096619;28;20196;-72
2021/10/16 05:38:10;;;;;;;24.58;16.60;;;10.70;99.90;;;;;;5096710;28;20241;-71
2021/10/16 05:40:37;;;;;;;27.63;17.95;;;10.70;99.90;;;;;;5097933;28;20664;-72
2021/10/16 05:43:03;;;;;;;28.70;18.85;;;10.70;99.90;;;;;;5097969;28;20184;-71
2021/10/16 05:45:30;;;;;;;30.97;20.53;;;10.70;99.90;;;;;;5096232;28;20225;-72
2021/10/16 05:47:56;;;;;;;29.45;18.88;;;10.70;99.90;;;;;;5096701;28;20252;-72
2021/10/16 05:50:22;;;;;;;26.67;17.65;;;10.70;99.90;;;;;;5096336;28;20192;-71
2021/10/16 05:52:53;;;;;;;26.23;16.95;;;10.70;99.90;;;;;;5096145;28;20211;-72
2021/10/16 05:55:19;;;;;;;29.10;18.27;;;10.70;99.90;;;;;;5096143;28;20200;-72
2021/10/16 05:57:46;;;;;;;27.02;17.88;;;10.70;99.90;;;;;;5096185;28;20210;-72
2021/10/16 06:00:13;;;;;;;27.55;19.20;;;10.70;99.90;;;;;;5095942;28;20238;-72
2021/10/16 06:02:47;;;;;;;28.63;19.45;;;10.70;99.90;;;;;;5096374;28;20187;-72
2021/10/16 06:05:14;;;;;;;24.67;17.48;;;10.70;99.90;;;;;;5095937;28;20228;-71
2021/10/16 06:07:43;;;;;;;28.13;18.57;;;10.70;99.90;;;;;;5095964;28;20188;-72
2021/10/16 06:10:12;;;;;;;26.05;17.17;;;10.70;99.90;;;;;;5097328;28;20499;-71
2021/10/16 06:12:38;;;;;;;25.40;16.33;;;10.80;99.90;;;;;;5095965;28;20228;-72
2021/10/16 06:15:04;;;;;;;25.57;15.90;;;10.80;99.90;;;;;;5114688;28;20639;-71
2021/10/16 06:17:30;;;;;;;24.85;15.85;;;10.80;99.90;;;;;;5114333;28;20981;-71
2021/10/16 06:19:59;;;;;;;25.63;16.70;;;10.80;99.90;;;;;;5114874;28;20200;-72
2021/10/16 06:22:27;;;;;;;26.17;16.10;;;10.80;99.90;;;;;;5114518;28;20505;-72
2021/10/16 06:24:53;;;;;;;22.42;15.52;;;10.90;99.90;;;;;;5114463;28;20199;-72
2021/10/16 06:27:23;;;;;;;23.80;15.55;;;10.90;99.90;;;;;;5114763;28;20172;-72
2021/10/16 06:29:50;;;;;;;24.65;16.73;;;10.90;99.90;;;;;;5115839;28;20651;-72
2021/10/16 06:32:22;;;;;;;24.67;16.38;;;10.90;99.90;;;;;;5115946;28;20183;-72
2021/10/16 06:34:54;;;;;;;22.48;15.60;;;10.90;99.90;;;;;;5116052;28;20309;-72
2021/10/16 06:37:20;;;;;;;23.88;15.23;;;11.00;99.90;;;;;;5115831;28;20229;-72
2021/10/16 06:39:46;;;;;;;21.00;14.40;;;11.00;99.90;;;;;;5115024;28;20202;-72
2021/10/16 06:42:12;;;;;;;22.07;15.33;;;11.00;99.90;;;;;;5113994;28;20547;-70
2021/10/16 06:44:38;;;;;;;24.23;14.80;;;11.10;99.90;;;;;;5114820;28;20443;-72
2021/10/16 06:47:07;;;;;;;25.83;16.20;;;11.10;99.90;;;;;;5114569;28;20491;-72
2021/10/16 06:49:35;;;;;;;24.58;14.98;;;11.10;99.90;;;;;;5110613;28;20199;-72
2021/10/16 06:52:00;;;;;;;22.05;15.00;;;11.20;99.90;;;;;;5104890;28;20224;-72
2021/10/16 06:54:31;;;;;;;23.50;15.70;;;11.20;99.90;;;;;;5111802;28;20307;-71
2021/10/16 06:57:03;;;;;;;23.60;15.85;;;11.20;99.90;;;;;;5110706;28;20172;-73
2021/10/16 06:59:31;;;;;;;25.15;15.20;;;11.20;99.90;;;;;;5112217;28;20196;-72
2021/10/16 07:01:58;;;;;;;26.10;17.05;;;11.20;99.90;;;;;;5111200;28;20191;-71
2021/10/16 07:04:25;;;;;;;24.40;15.27;;;11.30;99.90;;;;;;5111246;28;20199;-71
2021/10/16 07:06:51;;;;;;;23.85;15.20;;;11.30;99.90;;;;;;5113015;28;20251;-72
2021/10/16 07:09:18;;;;;;;24.65;16.40;;;11.30;99.90;;;;;;5112094;28;20640;-72
2021/10/16 07:11:44;;;;;;;25.55;15.80;;;11.30;99.90;;;;;;5111273;28;20258;-71
2021/10/16 07:14:12;;;;;;;24.70;15.60;;;11.30;99.90;;;;;;5108875;28;20325;-72
2021/10/16 07:16:42;;;;;;;23.25;15.63;;;11.30;99.90;;;;;;5109799;28;20408;-72
2021/10/16 07:19:11;;;;;;;24.60;18.00;;;11.40;99.90;;;;;;5110921;28;20763;-72
2021/10/16 07:21:38;;;;;;;31.10;20.60;;;11.40;99.90;;;;;;5111056;28;20683;-71
2021/10/16 07:24:07;;;;;;;25.23;18.45;;;11.30;99.90;;;;;;5108056;28;20179;-72
2021/10/16 07:26:34;;;;;;;22.73;15.05;;;11.40;99.90;;;;;;5113434;28;20180;-71
2021/10/16 07:29:00;;;;;;;23.33;14.80;;;11.40;99.90;;;;;;5113366;28;20187;-72
2021/10/16 07:31:32;;;;;;;24.30;16.20;;;11.40;99.90;;;;;;5111850;28;20594;-72
2021/10/16 07:34:03;;;;;;;24.98;16.00;;;11.40;99.90;;;;;;5108540;28;20302;-71
2021/10/16 07:36:37;;;;;;;24.73;15.60;;;11.40;99.90;;;;;;5094433;28;20282;-71
2021/10/16 07:39:06;;;;;;;25.58;17.13;;;11.50;99.90;;;;;;5093820;28;20249;-72
2021/10/16 07:41:35;;;;;;;25.83;15.27;;;11.50;99.90;;;;;;5092810;28;20271;-72
2021/10/16 07:44:02;;;;;;;25.20;16.98;;;11.50;99.90;;;;;;5092312;28;20636;-72
2021/10/16 07:46:30;;;;;;;83.70;44.22;;;11.50;99.90;;;;;;5092382;28;20678;-71
2021/10/16 07:48:57;;;;;;;64.63;38.55;;;11.50;99.90;;;;;;5092131;28;20185;-72
2021/10/16 07:51:23;;;;;;;42.70;25.93;;;11.50;99.90;;;;;;5103215;28;20713;-71
2021/10/16 07:53:49;;;;;;;37.20;25.92;;;11.50;99.90;;;;;;5111212;28;20475;-72
2021/10/16 07:56:17;;;;;;;42.20;28.17;;;11.50;99.90;;;;;;5112835;28;20267;-71
2021/10/16 07:58:45;;;;;;;30.80;21.80;;;11.60;99.90;;;;;;5113966;28;20648;-72
2021/10/16 08:01:12;;;;;;;29.83;19.17;;;11.60;99.90;;;;;;5114408;28;20687;-72
2021/10/16 08:03:39;;;;;;;26.80;17.60;;;11.60;99.90;;;;;;5114216;28;20180;-72
2021/10/16 08:06:12;;;;;;;26.07;16.17;;;11.60;99.90;;;;;;5113554;28;20195;-71
2021/10/16 08:08:38;;;;;;;26.95;17.58;;;11.60;99.90;;;;;;5114524;28;20591;-72
2021/10/16 08:11:04;;;;;;;23.13;16.98;;;11.60;99.90;;;;;;5114382;28;20195;-71
2021/10/16 08:13:31;;;;;;;24.10;16.57;;;11.60;99.90;;;;;;5113580;28;20237;-72
2021/10/16 08:16:06;;;;;;;25.88;16.17;;;11.60;99.90;;;;;;5113867;28;20204;-72
2021/10/16 08:18:34;;;;;;;26.60;16.98;;;11.70;99.90;;;;;;5114154;28;20190;-72
2021/10/16 08:21:00;;;;;;;27.02;17.75;;;11.70;99.90;;;;;;5114006;28;20741;-71
2021/10/16 08:23:28;;;;;;;26.37;18.80;;;11.80;99.90;;;;;;5113961;28;20187;-72
2021/10/16 08:25:59;;;;;;;26.45;16.60;;;11.80;99.90;;;;;;5113654;28;20468;-72
2021/10/16 08:28:29;;;;;;;62.17;33.45;;;11.90;99.90;;;;;;5114143;28;20564;-72
2021/10/16 08:30:57;;;;;;;28.40;16.90;;;11.90;99.90;;;;;;5113769;28;20204;-71
2021/10/16 08:33:29;;;;;;;38.67;23.67;;;11.90;99.90;;;;;;5113567;28;20302;-72
2021/10/16 08:35:56;;;;;;;47.60;26.80;;;12.00;99.90;;;;;;5113489;28;20286;-71
2021/10/16 08:38:25;;;;;;;70.82;35.03;;;12.00;99.90;;;;;;5113635;28;20180;-71
2021/10/16 08:40:53;;;;;;;35.47;22.02;;;12.10;99.90;;;;;;5113463;28;20248;-71
2021/10/16 08:43:21;;;;;;;24.25;16.67;;;12.20;99.90;;;;;;5113665;28;20179;-72
2021/10/16 08:45:47;;;;;;;23.73;15.90;;;12.20;99.90;;;;;;5113304;28;20195;-71
2021/10/16 08:48:18;;;;;;;23.58;15.50;;;12.30;99.90;;;;;;5113354;28;20180;-72
2021/10/16 08:50:47;;;;;;;21.85;16.23;;;12.30;99.90;;;;;;5113607;28;20679;-71
2021/10/16 08:53:16;;;;;;;30.57;20.37;;;12.40;99.90;;;;;;5113202;28;20260;-71
2021/10/16 08:55:44;;;;;;;22.23;15.53;;;12.50;99.90;;;;;;5113223;28;20466;-72
2021/10/16 08:58:10;;;;;;;24.30;15.57;;;12.60;99.90;;;;;;5114876;28;20794;-71
2021/10/16 09:00:38;;;;;;;21.17;14.80;;;12.70;99.90;;;;;;5113154;28;20452;-72
2021/10/16 09:03:23;;;;;;;18.75;12.95;;;12.70;99.90;;;;;;5113231;28;20447;-72
2021/10/16 09:06:13;;;;;;;17.80;12.30;;;12.80;99.90;;;;;;5113079;28;20667;-72
2021/10/16 09:08:41;;;;;;;16.47;11.73;;;13.00;99.90;;;;;;5113027;28;21016;-71
2021/10/16 09:11:12;;;;;;;27.63;15.70;;;13.10;99.90;;;;;;5113069;28;20473;-72
2021/10/16 09:14:03;;;;;;;23.53;15.90;;;13.20;99.90;;;;;;5113081;28;20835;-72
2021/10/16 09:16:41;;;;;;;19.43;12.20;;;13.30;99.90;;;;;;5110037;28;21043;-72
2021/10/16 09:19:19;;;;;;;19.10;12.77;;;13.50;99.90;;;;;;5113295;28;20436;-72
2021/10/16 09:21:56;;;;;;;17.13;12.20;;;13.60;99.90;;;;;;5113010;28;20503;-72
2021/10/16 09:24:25;;;;;;;18.20;11.40;;;13.60;99.90;;;;;;5112853;28;20451;-72
2021/10/16 09:26:54;;;;;;;16.37;11.90;;;13.70;99.90;;;;;;5113020;28;20816;-71
2021/10/16 09:29:24;;;;;;;16.60;12.20;;;13.80;99.90;;;;;;5112818;28;20475;-72
2021/10/16 09:32:02;;;;;;;18.73;12.20;;;13.80;99.90;;;;;;5112576;28;20511;-72
2021/10/16 09:34:33;;;;;;;16.87;11.17;;;13.90;99.90;;;;;;5113142;28;21079;-72
2021/10/16 09:37:11;;;;;;;15.47;11.33;;;14.00;99.90;;;;;;5114076;28;20420;-71
2021/10/16 09:39:54;;;;;;;16.13;10.80;;;14.00;99.90;;;;;;5112764;28;21024;-72
2021/10/16 09:42:40;;;;;;;18.20;11.13;;;14.10;99.90;;;;;;5113065;28;20420;-72
2021/10/16 09:45:10;;;;;;;14.17;10.40;;;14.10;99.90;;;;;;5113058;28;20444;-72
2021/10/16 09:47:36;;;;;;;17.40;11.43;;;14.20;99.90;;;;;;5112527;28;20474;-71
2021/10/16 09:50:11;;;;;;;13.77;10.47;;;14.20;99.90;;;;;;5112677;28;20964;-72
2021/10/16 09:52:41;;;;;;;17.00;11.40;;;14.20;99.90;;;;;;5113210;28;20176;-71
2021/10/16 09:55:12;;;;;;;13.33;10.40;;;14.30;99.90;;;;;;5112863;28;20483;-73
2021/10/16 09:57:42;;;;;;;14.70;10.77;;;14.30;99.90;;;;;;5114494;28;20823;-73
2021/10/16 10:00:13;;;;;;;16.80;11.30;;;14.40;99.90;;;;;;5110996;28;20794;-73
2021/10/16 10:02:40;;;;;;;17.53;10.60;;;14.40;99.90;;;;;;5106208;28;20462;-73
2021/10/16 10:05:12;;;;;;;15.60;11.33;;;14.40;99.90;;;;;;5111343;28;20473;-73
2021/10/16 10:07:48;;;;;;;16.43;11.63;;;14.50;99.90;;;;;;5111614;28;20436;-72
2021/10/16 10:10:19;;;;;;;15.77;10.80;;;14.50;99.90;;;;;;5112395;28;20959;-73
2021/10/16 10:12:52;;;;;;;16.87;11.20;;;14.50;99.90;;;;;;5105160;28;20494;-73
2021/10/16 10:15:24;;;;;;;17.63;11.20;;;14.60;99.90;;;;;;5100514;28;20495;-73
2021/10/16 10:17:59;;;;;;;18.90;11.40;;;14.60;99.90;;;;;;5114589;28;20522;-72
2021/10/16 10:20:41;;;;;;;16.07;10.80;;;14.70;99.90;;;;;;5107322;28;20448;-73
2021/10/16 10:23:24;;;;;;;15.43;11.60;;;14.70;99.90;;;;;;5114364;28;20422;-72
2021/10/16 10:26:25;;;;;;;13.90;11.47;;;14.80;99.90;;;;;;5112112;28;21024;-72
2021/10/16 10:29:20;;;;;;;15.07;10.90;;;14.80;99.90;;;;;;5113508;28;20435;-72
2021/10/16 10:31:50;;;;;;;16.10;11.50;;;14.90;99.90;;;;;;5114775;28;20423;-72
2021/10/16 10:34:19;;;;;;;15.93;10.83;;;14.90;99.90;;;;;;5114618;28;20476;-72
2021/10/16 10:36:48;;;;;;;23.83;14.87;;;15.00;99.90;;;;;;5113859;28;20405;-71
2021/10/16 10:39:33;;;;;;;24.77;14.63;;;15.00;99.90;;;;;;5112686;27;20432;-71
2021/10/16 10:42:22;;;;;;;43.10;22.77;;;15.10;99.90;;;;;;5112333;28;20932;-72
2021/10/16 10:44:52;;;;;;;15.07;10.63;;;15.20;99.90;;;;;;5112577;28;20480;-72
2021/10/16 10:47:32;;;;;;;18.00;12.30;;;15.30;99.90;;;;;;5112428;28;20501;-72
2021/10/16 10:50:10;;;;;;;17.77;12.27;;;15.40;99.90;;;;;;5110717;28;20475;-71
2021/10/16 10:52:54;;;;;;;17.03;11.47;;;15.50;99.90;;;;;;5113088;28;20798;-72
2021/10/16 10:55:22;;;;;;;15.73;11.47;;;15.60;99.90;;;;;;5115828;28;20593;-71
2021/10/16 10:57:59;;;;;;;15.60;11.33;;;15.70;99.90;;;;;;5116058;28;20434;-72
2021/10/16 11:00:29;;;;;;;14.60;10.60;;;15.80;99.90;;;;;;5117074;28;20459;-71
2021/10/16 11:02:54;;;;;;;13.33;9.50;;;15.80;99.90;;;;;;5116053;28;20563;-71
2021/10/16 11:05:35;;;;;;;13.43;10.50;;;15.90;99.90;;;;;;5116081;28;20432;-72
2021/10/16 11:08:15;;;;;;;13.17;9.40;;;15.90;99.90;;;;;;5116302;28;20182;-71
2021/10/16 11:10:44;;;;;;;15.37;9.90;;;16.00;99.90;;;;;;5115186;28;20452;-72
2021/10/16 11:13:15;;;;;;;12.20;8.30;;;16.10;99.90;;;;;;5114977;28;20800;-71
2021/10/16 11:15:44;;;;;;;12.33;9.17;;;16.20;99.90;;;;;;5115190;28;20846;-71
2021/10/16 11:18:16;;;;;;;12.83;9.67;;;16.20;99.90;;;;;;5115347;28;20440;-71
2021/10/16 11:20:43;;;;;;;15.23;11.17;;;16.30;99.90;;;;;;5115448;28;20472;-71
2021/10/16 11:23:25;;;;;;;14.27;10.13;;;16.40;99.90;;;;;;5116164;28;20416;-72
2021/10/16 11:26:03;;;;;;;12.20;10.57;;;16.40;99.90;;;;;;5114901;28;20454;-72
2021/10/16 11:28:35;;;;;;;14.97;9.50;;;16.50;99.90;;;;;;5114888;28;20430;-71
2021/10/16 11:31:05;;;;;;;14.47;9.90;;;16.60;99.90;;;;;;5114884;28;20492;-74
2021/10/16 11:33:36;;;;;;;16.00;10.80;;;16.60;99.90;;;;;;5115031;28;20451;-71
2021/10/16 11:36:03;;;;;;;12.93;9.90;;;16.70;99.90;;;;;;5114817;28;20443;-71
2021/10/16 11:38:32;;;;;;;13.13;10.17;;;16.70;99.90;;;;;;5114575;28;20481;-72
2021/10/16 11:41:01;;;;;;;14.60;10.33;;;16.80;99.90;;;;;;5114647;28;20432;-72
2021/10/16 11:43:37;;;;;;;14.53;10.37;;;16.80;99.90;;;;;;5116584;28;20451;-71
2021/10/16 11:46:06;;;;;;;13.43;10.13;;;16.90;99.90;;;;;;5114160;28;20457;-71
2021/10/16 11:48:32;;;;;;;14.57;10.17;;;16.90;99.90;;;;;;5110936;28;20428;-71
2021/10/16 11:51:03;;;;;;;11.87;9.17;;;17.00;99.90;;;;;;5105374;28;20536;-73
2021/10/16 11:53:34;;;;;;;14.17;10.67;;;17.00;99.90;;;;;;5111541;28;20692;-73
2021/10/16 11:56:10;;;;;;;11.80;9.17;;;17.00;99.90;;;;;;5105371;28;20441;-73
2021/10/16 11:58:38;;;;;;;14.23;9.70;;;17.10;99.90;;;;;;5104401;28;20948;-73
2021/10/16 12:01:06;;;;;;;14.03;11.30;;;17.10;99.90;;;;;;5111505;28;20460;-74
2021/10/16 12:03:39;;;;;;;17.60;11.43;;;17.10;99.90;;;;;;5110865;28;20522;-72
2021/10/16 12:06:16;;;;;;;12.87;9.23;;;17.10;99.90;;;;;;5112765;28;20432;-72
2021/10/16 12:08:49;;;;;;;14.23;10.00;;;17.20;99.90;;;;;;5111740;28;20474;-73
2021/10/16 12:11:21;;;;;;;13.97;10.53;;;17.20;99.90;;;;;;5111996;28;20973;-73
2021/10/16 12:14:01;;;;;;;10.97;9.50;;;17.20;99.90;;;;;;5111548;28;20487;-74
2021/10/16 12:16:41;;;;;;;14.70;10.70;;;17.20;99.90;;;;;;5113948;28;20415;-73
2021/10/16 12:19:14;;;;;;;16.47;10.40;;;17.20;99.90;;;;;;5111858;28;20817;-73
2021/10/16 12:21:57;;;;;;;11.23;9.50;;;17.20;99.90;;;;;;5111656;28;20420;-73
2021/10/16 12:24:30;;;;;;;13.37;9.83;;;17.20;99.90;;;;;;5111291;28;20855;-73
2021/10/16 12:27:09;;;;;;;11.77;9.00;;;17.20;99.90;;;;;;5111479;28;20415;-73
2021/10/16 12:29:37;;;;;;;16.53;9.43;;;17.20;99.90;;;;;;5111914;28;20431;-73
2021/10/16 12:32:11;;;;;;;12.37;10.13;;;17.20;99.90;;;;;;5111554;28;20404;-73
2021/10/16 12:34:52;;;;;;;12.47;9.90;;;17.20;99.90;;;;;;5111380;28;20503;-73
2021/10/16 12:37:18;;;;;;;14.93;9.80;;;17.20;99.90;;;;;;5112942;28;20924;-72
2021/10/16 12:39:47;;;;;;;10.93;9.10;;;17.20;99.90;;;;;;5104157;28;20452;-73
2021/10/16 12:42:22;;;;;;;16.73;11.23;;;17.20;99.90;;;;;;5113442;28;20519;-72